createdAt,value
2022-12-25T00:01:15.377Z,3.35
2022-12-25T00:03:42.101Z,3.28
2022-12-25T00:06:08.758Z,3.23
2022-12-25T00:08:35.844Z,3.19
2022-12-25T00:11:06.409Z,3.15
2022-12-25T00:13:33.188Z,3.11
2022-12-25T00:15:59.667Z,3.03
2022-12-25T00:18:26.148Z,2.96
2022-12-25T00:20:56.306Z,2.93
2022-12-25T00:23:22.744Z,2.90
2022-12-25T00:25:49.221Z,2.79
2022-12-25T00:28:15.719Z,2.71
2022-12-25T00:30:42.153Z,2.70
2022-12-25T00:33:08.707Z,2.64
2022-12-25T00:35:35.238Z,2.62
2022-12-25T00:38:01.741Z,2.58
2022-12-25T00:40:28.254Z,2.57
2022-12-25T00:42:54.693Z,2.55
2022-12-25T00:45:21.282Z,2.48
2022-12-25T00:47:47.853Z,2.46
2022-12-25T00:50:14.384Z,2.43
2022-12-25T00:52:40.872Z,2.35
2022-12-25T00:55:07.447Z,2.31
2022-12-25T00:57:34.059Z,2.24
2022-12-25T01:00:00.515Z,2.23
2022-12-25T01:02:27.280Z,2.23
2022-12-25T01:04:54.969Z,2.19
2022-12-25T01:07:21.894Z,2.11
2022-12-25T01:10:07.299Z,2.13
2022-12-25T01:12:34.764Z,2.06
2022-12-25T01:15:01.264Z,2.00
2022-12-25T01:17:27.731Z,1.96
2022-12-25T01:19:54.186Z,1.95
2022-12-25T01:22:20.736Z,1.95
2022-12-25T01:24:47.251Z,1.90
2022-12-25T01:27:13.796Z,1.84
2022-12-25T01:29:40.538Z,1.78
2022-12-25T01:32:07.225Z,1.77
2022-12-25T01:34:33.954Z,1.74
2022-12-25T01:37:00.461Z,1.74
2022-12-25T01:39:26.969Z,1.65
2022-12-25T01:41:53.418Z,1.62
2022-12-25T01:44:19.855Z,1.58
2022-12-25T01:46:46.433Z,1.51
2022-12-25T01:49:15.221Z,1.51
2022-12-25T01:51:48.137Z,1.50
2022-12-25T01:54:23.894Z,1.47
2022-12-25T01:56:51.696Z,1.40
2022-12-25T01:59:19.751Z,1.37
2022-12-25T02:01:46.980Z,1.35
2022-12-25T02:04:17.747Z,1.32
2022-12-25T02:06:44.207Z,1.26
2022-12-25T02:09:10.721Z,1.23
2022-12-25T02:11:55.899Z,1.20
2022-12-25T02:14:22.623Z,1.21
2022-12-25T02:16:57.941Z,1.16
2022-12-25T02:19:44.084Z,1.08
2022-12-25T02:22:10.508Z,1.07
2022-12-25T02:24:48.489Z,1.06
2022-12-25T02:27:18.831Z,1.05
2022-12-25T02:29:48.533Z,1.03
2022-12-25T02:32:20.936Z,0.99
2022-12-25T02:34:51.354Z,0.97
2022-12-25T02:37:20.916Z,1.01
2022-12-25T02:40:09.995Z,0.99
2022-12-25T02:43:00.786Z,0.93
2022-12-25T02:45:45.724Z,0.89
2022-12-25T02:48:32.134Z,0.87
2022-12-25T02:51:17.868Z,0.86
2022-12-25T02:54:04.427Z,0.84
2022-12-25T02:56:50.615Z,0.75
2022-12-25T02:59:37.082Z,0.75
2022-12-25T03:02:23.102Z,0.71
2022-12-25T03:05:09.976Z,0.70
2022-12-25T03:07:38.806Z,0.66
2022-12-25T03:10:26.524Z,0.57
2022-12-25T03:13:08.827Z,0.58
2022-12-25T03:15:54.334Z,0.62
2022-12-25T03:18:24.508Z,0.57
2022-12-25T03:21:10.169Z,0.52
2022-12-25T03:23:56.694Z,0.43
2022-12-25T03:27:03.086Z,0.45
2022-12-25T03:29:51.472Z,0.43
2022-12-25T03:32:20.842Z,0.41
2022-12-25T03:35:17.629Z,0.38
2022-12-25T03:38:07.564Z,0.44
2022-12-25T03:40:57.996Z,0.45
2022-12-25T03:43:55.941Z,0.41
2022-12-25T03:46:44.357Z,0.27
2022-12-25T03:49:52.351Z,0.28
2022-12-25T03:52:38.624Z,0.30
2022-12-25T03:55:26.063Z,0.25
2022-12-25T03:58:11.256Z,0.23
2022-12-25T04:00:56.425Z,0.23
2022-12-25T04:03:41.349Z,0.24
2022-12-25T04:06:26.611Z,0.13
2022-12-25T04:09:11.565Z,0.11
2022-12-25T04:12:02.264Z,0.09
2022-12-25T04:14:47.835Z,0.03
2022-12-25T04:17:32.909Z,0.03
2022-12-25T04:20:17.781Z,0.00
2022-12-25T04:23:02.939Z,0.02
2022-12-25T04:25:48.083Z,0.07
2022-12-25T04:28:33.185Z,0.03
2022-12-25T04:31:21.661Z,0.02
2022-12-25T04:34:06.907Z,0.01
2022-12-25T04:36:33.382Z,-0.01
2022-12-25T04:38:59.823Z,0.00
2022-12-25T04:41:26.420Z,0.01
2022-12-25T04:43:52.900Z,0.05
2022-12-25T04:46:19.362Z,0.06
2022-12-25T04:48:45.886Z,0.03
2022-12-25T04:51:12.430Z,0.10
2022-12-25T04:53:38.942Z,0.11
2022-12-25T04:56:05.710Z,0.13
2022-12-25T04:58:32.396Z,0.14
2022-12-25T05:01:00.045Z,0.12
2022-12-25T05:03:26.594Z,0.14
2022-12-25T05:05:53.070Z,0.14
2022-12-25T05:08:20.393Z,0.12
2022-12-25T05:10:46.962Z,0.17
2022-12-25T05:13:13.482Z,0.20
2022-12-25T05:15:40.725Z,0.23
2022-12-25T05:18:07.468Z,0.22
2022-12-25T05:20:39.678Z,0.20
2022-12-25T05:23:06.891Z,0.20
2022-12-25T05:25:33.391Z,0.18
2022-12-25T05:27:59.909Z,0.19
2022-12-25T05:30:26.467Z,0.22
2022-12-25T05:32:52.919Z,0.14
2022-12-25T05:35:19.358Z,0.15
2022-12-25T05:37:46.110Z,0.17
2022-12-25T05:40:12.614Z,0.18
2022-12-25T05:42:39.066Z,0.18
2022-12-25T05:45:05.874Z,0.21
2022-12-25T05:47:32.331Z,0.24
2022-12-25T05:49:58.804Z,0.25
2022-12-25T05:52:25.272Z,0.18
2022-12-25T05:54:51.737Z,0.18
2022-12-25T05:57:18.212Z,0.25
2022-12-25T05:59:44.715Z,0.21
2022-12-25T06:02:11.329Z,0.16
2022-12-25T06:04:37.853Z,0.17
2022-12-25T06:07:04.359Z,0.13
2022-12-25T06:09:30.823Z,0.11
2022-12-25T06:11:57.291Z,0.10
2022-12-25T06:14:23.794Z,0.07
2022-12-25T06:16:53.838Z,0.09
2022-12-25T06:19:21.275Z,0.11
2022-12-25T06:21:47.758Z,0.06
2022-12-25T06:24:21.020Z,0.07
2022-12-25T06:26:48.153Z,0.09
2022-12-25T06:29:14.690Z,0.10
2022-12-25T06:31:41.519Z,0.10
2022-12-25T06:34:08.489Z,0.19
2022-12-25T06:36:37.551Z,0.21
2022-12-25T06:39:04.453Z,0.21
2022-12-25T06:41:30.977Z,0.22
2022-12-25T06:43:58.999Z,0.24
2022-12-25T06:46:27.112Z,0.28
2022-12-25T06:48:53.859Z,0.27
2022-12-25T06:51:21.731Z,0.31
2022-12-25T06:53:48.847Z,0.34
2022-12-25T06:56:16.551Z,0.40
2022-12-25T06:58:50.818Z,0.37
2022-12-25T07:01:20.639Z,0.29
2022-12-25T07:03:48.556Z,0.37
2022-12-25T07:06:17.575Z,0.37
2022-12-25T07:08:44.039Z,0.41
2022-12-25T07:11:10.514Z,0.41
2022-12-25T07:13:37.060Z,0.40
2022-12-25T07:16:04.746Z,0.36
2022-12-25T07:18:32.155Z,0.35
2022-12-25T07:21:01.277Z,0.36
2022-12-25T07:23:27.780Z,0.35
2022-12-25T07:25:54.732Z,0.33
2022-12-25T07:28:21.166Z,0.35
2022-12-25T07:30:47.662Z,0.34
2022-12-25T07:33:14.225Z,0.39
2022-12-25T07:35:40.692Z,0.38
2022-12-25T07:38:07.253Z,0.46
2022-12-25T07:40:33.721Z,0.47
2022-12-25T07:43:00.179Z,0.56
2022-12-25T07:45:26.773Z,0.52
2022-12-25T07:47:55.220Z,0.53
2022-12-25T07:50:21.960Z,0.54
2022-12-25T07:52:48.464Z,0.54
2022-12-25T07:55:14.901Z,0.59
2022-12-25T07:57:41.529Z,0.64
2022-12-25T08:00:08.343Z,0.70
2022-12-25T08:02:35.005Z,0.75
2022-12-25T08:05:01.769Z,0.79
2022-12-25T08:07:28.574Z,0.88
2022-12-25T08:09:55.100Z,0.89
2022-12-25T08:12:21.578Z,0.93
2022-12-25T08:14:48.090Z,1.00
2022-12-25T08:17:14.707Z,1.05
2022-12-25T08:19:41.200Z,1.03
2022-12-25T08:22:07.764Z,1.08
2022-12-25T08:24:34.201Z,1.13
2022-12-25T08:27:00.822Z,1.13
2022-12-25T08:29:29.007Z,1.19
2022-12-25T08:31:55.553Z,1.24
2022-12-25T08:34:22.065Z,1.22
2022-12-25T08:36:48.523Z,1.29
2022-12-25T08:39:15.079Z,1.44
2022-12-25T08:41:41.880Z,1.55
2022-12-25T08:44:08.761Z,1.51
2022-12-25T08:46:36.833Z,1.55
2022-12-25T08:49:03.406Z,1.63
2022-12-25T08:51:30.222Z,1.63
2022-12-25T08:53:59.338Z,1.66
2022-12-25T08:56:25.976Z,1.73
2022-12-25T08:58:52.443Z,1.76
2022-12-25T09:01:19.006Z,1.70
2022-12-25T09:03:45.675Z,1.61
2022-12-25T09:06:13.761Z,1.58
2022-12-25T09:08:46.221Z,1.75
2022-12-25T09:11:15.793Z,1.80
2022-12-25T09:13:42.377Z,1.87
2022-12-25T09:16:13.791Z,1.94
2022-12-25T09:18:40.316Z,1.99
2022-12-25T09:21:07.894Z,1.97
2022-12-25T09:23:34.517Z,1.92
2022-12-25T09:26:02.140Z,1.99
2022-12-25T09:28:28.686Z,2.06
2022-12-25T09:30:55.319Z,2.11
2022-12-25T09:33:22.210Z,2.14
2022-12-25T09:35:56.804Z,2.30
2022-12-25T09:38:23.761Z,2.25
2022-12-25T09:40:59.513Z,2.35
2022-12-25T09:43:26.755Z,2.45
2022-12-25T09:45:53.386Z,2.60
2022-12-25T09:48:20.272Z,2.62
2022-12-25T09:50:49.967Z,2.58
2022-12-25T09:53:19.595Z,2.59
2022-12-25T09:55:50.793Z,2.67
2022-12-25T09:58:17.320Z,2.67
2022-12-25T10:00:49.274Z,2.69
2022-12-25T10:03:15.768Z,3.02
2022-12-25T10:06:07.581Z,2.96
2022-12-25T10:08:52.584Z,2.97
2022-12-25T10:11:19.054Z,2.85
2022-12-25T10:13:51.696Z,2.94
2022-12-25T10:16:18.265Z,3.05
2022-12-25T10:18:50.849Z,3.03
2022-12-25T10:21:18.483Z,2.99
2022-12-25T10:24:01.659Z,3.01
2022-12-25T10:26:30.906Z,3.19
2022-12-25T10:29:00.474Z,3.31
2022-12-25T10:31:28.497Z,3.41
2022-12-25T10:33:55.224Z,3.52
2022-12-25T10:36:24.346Z,3.62
2022-12-25T10:38:51.050Z,3.74
2022-12-25T10:41:29.673Z,3.76
2022-12-25T10:43:56.944Z,3.87
2022-12-25T10:46:25.484Z,3.95
2022-12-25T10:48:54.462Z,3.95
2022-12-25T10:51:32.865Z,4.17
2022-12-25T10:53:59.576Z,3.92
2022-12-25T10:56:26.097Z,4.02
2022-12-25T10:59:03.823Z,3.97
2022-12-25T11:01:31.612Z,3.89
2022-12-25T11:03:58.258Z,3.93
2022-12-25T11:06:26.197Z,3.91
2022-12-25T11:08:54.762Z,4.24
2022-12-25T11:11:21.747Z,4.02
2022-12-25T11:13:52.765Z,4.16
2022-12-25T11:16:27.114Z,4.13
2022-12-25T11:18:54.462Z,4.24
2022-12-25T11:21:25.453Z,4.17
2022-12-25T11:24:05.623Z,4.18
2022-12-25T11:26:36.574Z,4.28
2022-12-25T11:29:03.196Z,4.34
2022-12-25T11:31:50.030Z,4.38
2022-12-25T11:34:31.403Z,4.31
2022-12-25T11:36:58.848Z,4.38
2022-12-25T11:39:28.494Z,4.32
2022-12-25T11:41:58.038Z,4.54
2022-12-25T11:44:27.589Z,4.51
2022-12-25T11:46:56.017Z,4.45
2022-12-25T11:49:22.879Z,4.34
2022-12-25T11:51:52.002Z,4.40
2022-12-25T11:54:24.613Z,4.33
2022-12-25T11:56:51.178Z,4.31
2022-12-25T11:59:20.438Z,4.29
2022-12-25T12:01:50.016Z,4.38
2022-12-25T12:04:27.486Z,4.71
2022-12-25T12:06:58.094Z,4.57
2022-12-25T12:09:30.088Z,4.54
2022-12-25T12:12:07.620Z,4.41
2022-12-25T12:14:34.043Z,4.48
2022-12-25T12:17:00.586Z,4.37
2022-12-25T12:19:29.148Z,4.34
2022-12-25T12:21:57.204Z,4.36
2022-12-25T12:24:25.784Z,4.44
2022-12-25T12:27:03.368Z,4.51
2022-12-25T12:29:40.381Z,4.55
2022-12-25T12:32:19.955Z,4.70
2022-12-25T12:34:50.165Z,4.57
2022-12-25T12:37:25.119Z,4.54
2022-12-25T12:39:53.980Z,4.64
2022-12-25T12:42:22.597Z,4.60
2022-12-25T12:44:49.951Z,4.62
2022-12-25T12:47:28.581Z,4.62
2022-12-25T12:49:59.435Z,4.61
2022-12-25T12:52:31.283Z,4.57
2022-12-25T12:55:05.885Z,4.68
2022-12-25T12:57:35.820Z,4.68
2022-12-25T13:00:11.322Z,4.74
2022-12-25T13:02:56.419Z,4.78
2022-12-25T13:05:41.791Z,4.95
2022-12-25T13:08:17.464Z,5.06
2022-12-25T13:10:46.668Z,4.99
2022-12-25T13:13:17.984Z,5.12
2022-12-25T13:15:46.395Z,5.17
2022-12-25T13:18:13.372Z,5.18
2022-12-25T13:20:39.890Z,5.21
2022-12-25T13:23:19.215Z,5.14
2022-12-25T13:25:51.832Z,5.16
2022-12-25T13:28:23.951Z,5.22
2022-12-25T13:30:50.457Z,5.22
2022-12-25T13:33:18.966Z,5.28
2022-12-25T13:35:45.914Z,5.11
2022-12-25T13:38:15.798Z,5.16
2022-12-25T13:41:08.029Z,5.31
2022-12-25T13:43:34.554Z,5.11
2022-12-25T13:46:01.073Z,5.08
2022-12-25T13:48:27.569Z,5.13
2022-12-25T13:50:58.707Z,5.21
2022-12-25T13:53:26.366Z,5.05
2022-12-25T13:55:54.518Z,5.07
2022-12-25T13:58:25.517Z,5.06
2022-12-25T14:00:55.723Z,5.12
2022-12-25T14:03:33.191Z,5.09
2022-12-25T14:06:01.091Z,5.12
2022-12-25T14:08:35.084Z,5.07
2022-12-25T14:11:06.019Z,4.99
2022-12-25T14:13:35.791Z,5.04
2022-12-25T14:16:02.327Z,5.02
2022-12-25T14:18:29.992Z,4.89
2022-12-25T14:21:04.823Z,4.86
2022-12-25T14:26:50.771Z,4.99
2022-12-25T14:29:28.828Z,5.08
2022-12-25T14:31:57.169Z,4.91
2022-12-25T14:34:24.403Z,5.09
2022-12-25T14:36:52.164Z,5.13
2022-12-25T14:39:27.889Z,5.04
2022-12-25T14:41:54.514Z,5.08
2022-12-25T14:44:28.210Z,5.03
2022-12-25T14:47:14.940Z,5.06
2022-12-25T14:49:41.977Z,4.99
2022-12-25T14:52:19.640Z,4.96
2022-12-25T14:54:51.175Z,4.98
2022-12-25T14:57:27.114Z,5.00
2022-12-25T14:59:57.923Z,4.97
2022-12-25T15:02:25.151Z,4.90
2022-12-25T15:04:51.742Z,4.92
2022-12-25T15:07:31.170Z,4.95
2022-12-25T15:10:27.245Z,5.02
2022-12-25T15:12:44.384Z,5.16
2022-12-25T15:15:10.949Z,5.11
2022-12-25T15:17:38.209Z,5.12
2022-12-25T15:20:05.501Z,5.09
2022-12-25T15:22:54.098Z,5.47
2022-12-25T15:25:21.129Z,5.33
2022-12-25T15:27:47.983Z,5.36
2022-12-25T15:30:14.582Z,5.34
2022-12-25T15:32:41.099Z,5.25
2022-12-25T15:35:13.236Z,5.15
2022-12-25T15:37:39.791Z,5.28
2022-12-25T15:40:21.463Z,5.20
2022-12-25T15:42:49.209Z,5.13
2022-12-25T15:45:21.223Z,5.21
2022-12-25T15:47:47.845Z,5.28
2022-12-25T15:50:15.077Z,5.24
2022-12-25T15:52:42.000Z,5.18
2022-12-25T15:55:08.843Z,5.18
2022-12-25T15:57:35.427Z,5.23
2022-12-25T16:00:02.539Z,5.19
2022-12-25T16:02:29.218Z,5.24
2022-12-25T16:04:55.802Z,5.18
2022-12-25T16:07:23.587Z,5.22
2022-12-25T16:09:50.126Z,5.38
2022-12-25T16:12:16.732Z,5.36
2022-12-25T16:14:43.252Z,5.49
2022-12-25T16:17:14.885Z,5.40
2022-12-25T16:19:42.168Z,5.34
2022-12-25T16:22:12.478Z,5.35
2022-12-25T16:24:39.004Z,5.42
2022-12-25T16:27:05.603Z,5.35
2022-12-25T16:29:32.090Z,5.40
2022-12-25T16:32:08.039Z,5.37
2022-12-25T16:34:37.032Z,5.43
2022-12-25T16:37:08.110Z,5.55
2022-12-25T16:39:37.753Z,5.65
2022-12-25T16:42:19.943Z,5.63
2022-12-25T16:44:51.471Z,5.66
2022-12-25T16:47:18.353Z,5.76
2022-12-25T16:49:47.441Z,5.67
2022-12-25T16:52:13.950Z,5.75
2022-12-25T16:54:40.562Z,5.68
2022-12-25T16:57:07.041Z,5.85
2022-12-25T16:59:34.656Z,6.21
2022-12-25T17:02:01.309Z,6.03
2022-12-25T17:04:28.236Z,6.13
2022-12-25T17:06:54.783Z,6.04
2022-12-25T17:09:21.296Z,6.05
2022-12-25T17:11:48.159Z,5.86
2022-12-25T17:14:14.699Z,5.89
2022-12-25T17:16:41.300Z,5.86
2022-12-25T17:19:11.870Z,5.86
2022-12-25T17:21:38.602Z,5.98
2022-12-25T17:24:05.402Z,5.87
2022-12-25T17:26:32.397Z,5.90
2022-12-25T17:28:58.913Z,5.99
2022-12-25T17:31:25.715Z,5.98
2022-12-25T17:33:52.386Z,5.97
2022-12-25T17:36:20.183Z,5.98
2022-12-25T17:38:47.736Z,5.96
2022-12-25T17:41:15.512Z,5.94
2022-12-25T17:43:42.496Z,5.97
2022-12-25T17:46:13.479Z,5.97
2022-12-25T17:48:40.346Z,6.02
2022-12-25T17:51:08.157Z,6.02
2022-12-25T17:53:35.539Z,6.19
2022-12-25T17:56:02.058Z,6.17
2022-12-25T17:58:28.657Z,6.27
2022-12-25T18:00:55.588Z,6.39
2022-12-25T18:03:22.237Z,6.49
2022-12-25T18:05:48.998Z,6.42
2022-12-25T18:08:15.534Z,6.37
2022-12-25T18:10:42.959Z,6.27
2022-12-25T18:13:10.525Z,6.11
2022-12-25T18:15:37.984Z,6.05
2022-12-25T18:18:04.654Z,6.05
2022-12-25T18:20:37.657Z,5.98
2022-12-25T18:23:06.215Z,6.01
2022-12-25T18:25:33.884Z,6.03
2022-12-25T18:28:02.629Z,6.06
2022-12-25T18:30:29.503Z,6.03
2022-12-25T18:32:56.052Z,6.04
2022-12-25T18:35:22.652Z,6.03
2022-12-25T18:37:49.206Z,6.23
2022-12-25T18:40:15.684Z,6.08
2022-12-25T18:42:43.324Z,6.11
2022-12-25T18:45:11.793Z,6.15
2022-12-25T18:47:38.218Z,6.08
2022-12-25T18:50:05.955Z,6.13
2022-12-25T18:52:48.000Z,6.15
2022-12-25T18:55:17.804Z,6.22
2022-12-25T18:57:44.278Z,6.43
2022-12-25T19:00:10.947Z,6.43
2022-12-25T19:02:37.550Z,6.38
2022-12-25T19:05:04.305Z,6.40
2022-12-25T19:07:30.839Z,6.29
2022-12-25T19:09:57.274Z,6.32
2022-12-25T19:12:23.943Z,6.31
2022-12-25T19:14:50.484Z,6.46
2022-12-25T19:17:17.894Z,6.38
2022-12-25T19:19:44.504Z,6.33
2022-12-25T19:22:11.007Z,6.58
2022-12-25T19:24:37.591Z,6.38
2022-12-25T19:27:04.104Z,6.46
2022-12-25T19:29:31.650Z,6.58
2022-12-25T19:31:58.290Z,6.50
2022-12-25T19:34:25.168Z,6.44
2022-12-25T19:36:51.820Z,6.52
2022-12-25T19:39:18.471Z,6.38
2022-12-25T19:41:45.026Z,6.39
2022-12-25T19:44:11.532Z,6.53
2022-12-25T19:46:40.438Z,6.37
2022-12-25T19:49:07.913Z,6.42
2022-12-25T19:51:38.440Z,6.43
2022-12-25T19:54:06.036Z,6.38
2022-12-25T19:56:32.954Z,6.36
2022-12-25T19:58:59.572Z,6.44
2022-12-25T20:01:27.309Z,6.39
2022-12-25T20:03:54.264Z,6.40
2022-12-25T20:06:26.104Z,6.46
2022-12-25T20:08:54.370Z,6.45
2022-12-25T20:11:21.499Z,6.40
2022-12-25T20:13:48.049Z,6.39
2022-12-25T20:16:14.779Z,6.54
2022-12-25T20:18:41.363Z,6.42
2022-12-25T20:21:10.760Z,6.41
2022-12-25T20:23:37.386Z,6.40
2022-12-25T20:26:07.245Z,6.45
2022-12-25T20:28:34.656Z,6.46
2022-12-25T20:31:13.446Z,6.45
2022-12-25T20:33:40.508Z,6.43
2022-12-25T20:36:07.388Z,6.51
2022-12-25T20:38:35.108Z,6.43
2022-12-25T20:41:26.131Z,6.55
2022-12-25T20:43:50.162Z,6.55
2022-12-25T20:46:17.009Z,6.59
2022-12-25T20:48:44.060Z,6.50
2022-12-25T20:51:12.865Z,6.53
2022-12-25T20:53:39.792Z,6.52
2022-12-25T20:56:08.157Z,6.53
2022-12-25T20:58:34.713Z,6.56
2022-12-25T21:01:04.335Z,6.57
2022-12-25T21:03:31.131Z,6.63
2022-12-25T21:05:57.726Z,6.60
2022-12-25T21:08:25.068Z,6.67
2022-12-25T21:10:52.666Z,6.67
2022-12-25T21:13:19.872Z,6.70
2022-12-25T21:15:47.302Z,6.76
2022-12-25T21:18:14.504Z,6.83
2022-12-25T21:20:42.956Z,6.87
2022-12-25T21:23:09.453Z,6.94
2022-12-25T21:25:35.993Z,6.99
2022-12-25T21:28:02.485Z,7.03
2022-12-25T21:30:29.011Z,7.01
2022-12-25T21:33:33.941Z,6.99
2022-12-25T21:36:10.590Z,7.04
2022-12-25T21:38:37.757Z,7.09
2022-12-25T21:41:14.173Z,7.18
2022-12-25T21:43:41.036Z,7.11
2022-12-25T21:46:08.979Z,7.16
2022-12-25T21:48:36.573Z,7.16
2022-12-25T21:51:25.931Z,7.16
2022-12-25T21:53:52.399Z,7.08
2022-12-25T21:56:19.098Z,7.09
2022-12-25T21:58:45.659Z,7.05
2022-12-25T22:01:14.514Z,7.07
2022-12-25T22:03:41.126Z,7.09
2022-12-25T22:06:26.355Z,7.10
2022-12-25T22:08:52.886Z,7.15
2022-12-25T22:11:38.080Z,7.26
2022-12-25T22:14:51.839Z,7.30
2022-12-25T22:17:28.568Z,7.30
2022-12-25T22:19:55.545Z,7.35
2022-12-25T22:22:23.675Z,7.32
2022-12-25T22:24:51.350Z,7.32
2022-12-25T22:27:18.125Z,7.37
2022-12-25T22:29:44.603Z,7.38
2022-12-25T22:32:13.464Z,7.36
2022-12-25T22:34:40.275Z,7.33
2022-12-25T22:37:07.245Z,7.36
2022-12-25T22:39:33.873Z,7.40
2022-12-25T22:42:01.296Z,7.39
2022-12-25T22:44:30.032Z,7.41
2022-12-25T22:46:57.887Z,7.37
2022-12-25T22:49:24.680Z,7.35
2022-12-25T22:51:51.643Z,7.38
2022-12-25T22:54:19.901Z,7.36
2022-12-25T22:56:47.827Z,7.38
2022-12-25T22:59:15.336Z,7.41
2022-12-25T23:01:41.968Z,7.40
2022-12-25T23:04:09.639Z,7.42
2022-12-25T23:06:36.188Z,7.41
2022-12-25T23:09:03.723Z,7.39
2022-12-25T23:11:30.541Z,7.49
2022-12-25T23:14:15.589Z,7.47
2022-12-25T23:16:42.200Z,7.44
2022-12-25T23:19:27.423Z,7.43
2022-12-25T23:22:12.257Z,7.51
2022-12-25T23:24:57.096Z,7.49
2022-12-25T23:27:23.603Z,7.52
2022-12-25T23:29:50.053Z,7.51
2022-12-25T23:32:18.045Z,7.57
2022-12-25T23:34:45.572Z,7.57
2022-12-25T23:37:12.132Z,7.59
2022-12-25T23:39:38.610Z,7.59
2022-12-25T23:42:05.115Z,7.59
2022-12-25T23:44:31.616Z,7.58
2022-12-25T23:46:58.189Z,7.57
2022-12-25T23:49:25.525Z,7.65
2022-12-25T23:51:52.377Z,7.65
2022-12-25T23:54:23.667Z,7.64
2022-12-25T23:56:50.215Z,7.65
2022-12-25T23:59:16.842Z,7.66
